sensor_id;sensor_type;location;lat;lon;timestamp;P1;durP1;ratioP1;P2;durP2;ratioP2
73940;SDS011;62294;48.554;10.202;2023-05-15T00:00:47;3.53;;;2.25;;
73940;SDS011;62294;48.554;10.202;2023-05-15T00:03:14;4.25;;;2.40;;
73940;SDS011;62294;48.554;10.202;2023-05-15T00:05:41;3.85;;;2.50;;
73940;SDS011;62294;48.554;10.202;2023-05-15T00:08:08;5.47;;;2.42;;
73940;SDS011;62294;48.554;10.202;2023-05-15T00:10:35;3.75;;;2.40;;
73940;SDS011;62294;48.554;10.202;2023-05-15T00:13:01;4.65;;;2.50;;
73940;SDS011;62294;48.554;10.202;2023-05-15T00:15:27;3.88;;;2.40;;
73940;SDS011;62294;48.554;10.202;2023-05-15T00:17:54;5.25;;;2.53;;
73940;SDS011;62294;48.554;10.202;2023-05-15T00:20:21;4.20;;;2.40;;
73940;SDS011;62294;48.554;10.202;2023-05-15T00:22:47;24.50;;;4.55;;
73940;SDS011;62294;48.554;10.202;2023-05-15T00:25:14;5.28;;;2.28;;
73940;SDS011;62294;48.554;10.202;2023-05-15T00:27:41;11.00;;;2.58;;
73940;SDS011;62294;48.554;10.202;2023-05-15T00:30:07;8.95;;;2.40;;
73940;SDS011;62294;48.554;10.202;2023-05-15T00:32:34;9.93;;;2.58;;
73940;SDS011;62294;48.554;10.202;2023-05-15T00:35:01;4.22;;;2.45;;
73940;SDS011;62294;48.554;10.202;2023-05-15T00:37:27;8.20;;;2.70;;
73940;SDS011;62294;48.554;10.202;2023-05-15T00:39:54;8.90;;;2.45;;
73940;SDS011;62294;48.554;10.202;2023-05-15T00:42:21;5.88;;;2.45;;
73940;SDS011;62294;48.554;10.202;2023-05-15T00:44:48;5.65;;;2.47;;
73940;SDS011;62294;48.554;10.202;2023-05-15T00:47:17;8.23;;;2.22;;
73940;SDS011;62294;48.554;10.202;2023-05-15T00:49:46;7.00;;;2.63;;
73940;SDS011;62294;48.554;10.202;2023-05-15T00:52:14;20.90;;;3.30;;
73940;SDS011;62294;48.554;10.202;2023-05-15T00:54:41;8.50;;;2.60;;
73940;SDS011;62294;48.554;10.202;2023-05-15T00:57:07;9.57;;;2.42;;
73940;SDS011;62294;48.554;10.202;2023-05-15T00:59:34;5.10;;;2.03;;
73940;SDS011;62294;48.554;10.202;2023-05-15T01:02:01;6.03;;;2.20;;
73940;SDS011;62294;48.554;10.202;2023-05-15T01:04:29;3.30;;;1.92;;
73940;SDS011;62294;48.554;10.202;2023-05-15T01:06:56;5.35;;;3.72;;
73940;SDS011;62294;48.554;10.202;2023-05-15T01:09:22;3.45;;;2.30;;
73940;SDS011;62294;48.554;10.202;2023-05-15T01:11:53;3.88;;;1.55;;
73940;SDS011;62294;48.554;10.202;2023-05-15T01:14:20;7.10;;;2.20;;
73940;SDS011;62294;48.554;10.202;2023-05-15T01:16:46;6.25;;;1.95;;
73940;SDS011;62294;48.554;10.202;2023-05-15T01:19:13;5.10;;;2.10;;
73940;SDS011;62294;48.554;10.202;2023-05-15T01:27:06;3.75;;;2.17;;
73940;SDS011;62294;48.554;10.202;2023-05-15T01:29:49;3.15;;;1.80;;
73940;SDS011;62294;48.554;10.202;2023-05-15T01:32:23;2.88;;;2.00;;
73940;SDS011;62294;48.554;10.202;2023-05-15T01:37:30;6.57;;;2.30;;
73940;SDS011;62294;48.554;10.202;2023-05-15T01:40:01;4.45;;;2.50;;
73940;SDS011;62294;48.554;10.202;2023-05-15T01:42:33;5.20;;;2.53;;
73940;SDS011;62294;48.554;10.202;2023-05-15T01:45:03;3.92;;;2.03;;
73940;SDS011;62294;48.554;10.202;2023-05-15T01:47:35;4.13;;;1.90;;
73940;SDS011;62294;48.554;10.202;2023-05-15T01:50:04;3.67;;;2.47;;
73940;SDS011;62294;48.554;10.202;2023-05-15T01:52:35;3.85;;;2.10;;
73940;SDS011;62294;48.554;10.202;2023-05-15T01:55:06;3.15;;;1.88;;
73940;SDS011;62294;48.554;10.202;2023-05-15T01:57:33;4.13;;;2.35;;
73940;SDS011;62294;48.554;10.202;2023-05-15T02:00:01;3.67;;;2.25;;
73940;SDS011;62294;48.554;10.202;2023-05-15T02:02:29;3.22;;;1.85;;
73940;SDS011;62294;48.554;10.202;2023-05-15T02:04:56;4.25;;;2.22;;
73940;SDS011;62294;48.554;10.202;2023-05-15T02:07:24;4.05;;;1.92;;
73940;SDS011;62294;48.554;10.202;2023-05-15T02:09:51;3.40;;;2.00;;
73940;SDS011;62294;48.554;10.202;2023-05-15T02:12:18;4.47;;;1.95;;
73940;SDS011;62294;48.554;10.202;2023-05-15T02:14:47;4.65;;;2.35;;
73940;SDS011;62294;48.554;10.202;2023-05-15T02:17:14;4.18;;;2.53;;
73940;SDS011;62294;48.554;10.202;2023-05-15T02:19:41;5.15;;;2.67;;
73940;SDS011;62294;48.554;10.202;2023-05-15T02:22:08;4.80;;;2.45;;
73940;SDS011;62294;48.554;10.202;2023-05-15T02:24:35;5.15;;;2.72;;
73940;SDS011;62294;48.554;10.202;2023-05-15T02:30:05;4.88;;;2.65;;
73940;SDS011;62294;48.554;10.202;2023-05-15T02:35:41;5.38;;;2.90;;
73940;SDS011;62294;48.554;10.202;2023-05-15T02:38:16;4.75;;;2.60;;
73940;SDS011;62294;48.554;10.202;2023-05-15T02:40:47;5.17;;;2.63;;
73940;SDS011;62294;48.554;10.202;2023-05-15T02:43:16;3.95;;;2.38;;
73940;SDS011;62294;48.554;10.202;2023-05-15T02:45:44;5.85;;;2.63;;
73940;SDS011;62294;48.554;10.202;2023-05-15T02:48:13;4.45;;;2.50;;
73940;SDS011;62294;48.554;10.202;2023-05-15T02:50:41;3.38;;;2.38;;
73940;SDS011;62294;48.554;10.202;2023-05-15T02:53:08;6.28;;;3.47;;
73940;SDS011;62294;48.554;10.202;2023-05-15T02:55:36;6.78;;;4.15;;
73940;SDS011;62294;48.554;10.202;2023-05-15T02:58:03;8.95;;;5.25;;
73940;SDS011;62294;48.554;10.202;2023-05-15T03:00:30;9.93;;;5.15;;
73940;SDS011;62294;48.554;10.202;2023-05-15T03:02:56;9.75;;;5.55;;
73940;SDS011;62294;48.554;10.202;2023-05-15T03:05:23;7.18;;;4.35;;
73940;SDS011;62294;48.554;10.202;2023-05-15T03:07:49;6.10;;;4.13;;
73940;SDS011;62294;48.554;10.202;2023-05-15T03:10:16;5.20;;;2.80;;
73940;SDS011;62294;48.554;10.202;2023-05-15T03:12:43;7.35;;;4.45;;
73940;SDS011;62294;48.554;10.202;2023-05-15T03:15:09;5.90;;;3.28;;
73940;SDS011;62294;48.554;10.202;2023-05-15T03:17:35;5.82;;;2.88;;
73940;SDS011;62294;48.554;10.202;2023-05-15T03:20:02;4.57;;;2.80;;
73940;SDS011;62294;48.554;10.202;2023-05-15T03:22:29;4.60;;;2.95;;
73940;SDS011;62294;48.554;10.202;2023-05-15T03:24:56;5.95;;;2.85;;
73940;SDS011;62294;48.554;10.202;2023-05-15T03:27:23;6.28;;;3.17;;
73940;SDS011;62294;48.554;10.202;2023-05-15T03:29:49;5.00;;;2.72;;
73940;SDS011;62294;48.554;10.202;2023-05-15T03:32:16;5.30;;;3.50;;
73940;SDS011;62294;48.554;10.202;2023-05-15T03:34:43;6.47;;;3.33;;
73940;SDS011;62294;48.554;10.202;2023-05-15T03:37:09;7.10;;;3.78;;
73940;SDS011;62294;48.554;10.202;2023-05-15T03:39:36;7.72;;;4.07;;
73940;SDS011;62294;48.554;10.202;2023-05-15T03:42:03;6.63;;;3.25;;
73940;SDS011;62294;48.554;10.202;2023-05-15T03:44:29;7.65;;;4.28;;
73940;SDS011;62294;48.554;10.202;2023-05-15T03:46:56;11.20;;;4.35;;
73940;SDS011;62294;48.554;10.202;2023-05-15T03:49:22;8.75;;;4.13;;
73940;SDS011;62294;48.554;10.202;2023-05-15T03:51:49;8.23;;;4.80;;
73940;SDS011;62294;48.554;10.202;2023-05-15T03:54:15;6.45;;;3.85;;
73940;SDS011;62294;48.554;10.202;2023-05-15T03:56:42;6.00;;;3.45;;
73940;SDS011;62294;48.554;10.202;2023-05-15T03:59:09;7.65;;;3.10;;
73940;SDS011;62294;48.554;10.202;2023-05-15T04:01:36;6.13;;;2.92;;
73940;SDS011;62294;48.554;10.202;2023-05-15T04:04:22;6.50;;;2.88;;
73940;SDS011;62294;48.554;10.202;2023-05-15T04:06:49;3.85;;;2.63;;
73940;SDS011;62294;48.554;10.202;2023-05-15T04:09:16;4.78;;;2.58;;
73940;SDS011;62294;48.554;10.202;2023-05-15T04:11:43;5.43;;;2.67;;
73940;SDS011;62294;48.554;10.202;2023-05-15T04:14:12;8.48;;;3.53;;
73940;SDS011;62294;48.554;10.202;2023-05-15T04:16:39;7.95;;;3.83;;
73940;SDS011;62294;48.554;10.202;2023-05-15T04:19:05;8.68;;;3.80;;
73940;SDS011;62294;48.554;10.202;2023-05-15T04:21:32;8.10;;;3.85;;
73940;SDS011;62294;48.554;10.202;2023-05-15T04:23:58;11.10;;;4.68;;
73940;SDS011;62294;48.554;10.202;2023-05-15T04:26:25;9.25;;;4.97;;
73940;SDS011;62294;48.554;10.202;2023-05-15T04:28:51;10.85;;;5.05;;
73940;SDS011;62294;48.554;10.202;2023-05-15T04:31:29;9.20;;;5.18;;
73940;SDS011;62294;48.554;10.202;2023-05-15T04:33:56;12.20;;;5.47;;
73940;SDS011;62294;48.554;10.202;2023-05-15T04:36:23;10.68;;;5.50;;
73940;SDS011;62294;48.554;10.202;2023-05-15T04:38:50;13.82;;;6.15;;
73940;SDS011;62294;48.554;10.202;2023-05-15T04:41:17;17.55;;;6.35;;
73940;SDS011;62294;48.554;10.202;2023-05-15T04:43:43;10.95;;;4.80;;
73940;SDS011;62294;48.554;10.202;2023-05-15T04:46:10;8.20;;;4.45;;
73940;SDS011;62294;48.554;10.202;2023-05-15T04:48:36;10.50;;;5.15;;
73940;SDS011;62294;48.554;10.202;2023-05-15T04:51:03;8.00;;;4.43;;
73940;SDS011;62294;48.554;10.202;2023-05-15T04:53:29;11.18;;;5.70;;
73940;SDS011;62294;48.554;10.202;2023-05-15T04:55:56;11.10;;;5.45;;
73940;SDS011;62294;48.554;10.202;2023-05-15T04:58:22;12.77;;;6.22;;
73940;SDS011;62294;48.554;10.202;2023-05-15T05:00:49;15.68;;;6.22;;
73940;SDS011;62294;48.554;10.202;2023-05-15T05:03:16;10.80;;;5.72;;
73940;SDS011;62294;48.554;10.202;2023-05-15T05:05:42;15.10;;;7.28;;
73940;SDS011;62294;48.554;10.202;2023-05-15T05:08:08;18.45;;;8.15;;
73940;SDS011;62294;48.554;10.202;2023-05-15T05:10:35;15.98;;;7.70;;
73940;SDS011;62294;48.554;10.202;2023-05-15T05:13:02;26.20;;;9.57;;
73940;SDS011;62294;48.554;10.202;2023-05-15T05:15:28;20.13;;;8.50;;
73940;SDS011;62294;48.554;10.202;2023-05-15T05:17:55;28.60;;;10.80;;
73940;SDS011;62294;48.554;10.202;2023-05-15T05:20:22;26.48;;;10.95;;
73940;SDS011;62294;48.554;10.202;2023-05-15T05:22:48;23.63;;;10.52;;
73940;SDS011;62294;48.554;10.202;2023-05-15T05:25:14;26.17;;;10.52;;
73940;SDS011;62294;48.554;10.202;2023-05-15T05:27:41;23.13;;;10.02;;
73940;SDS011;62294;48.554;10.202;2023-05-15T05:30:08;20.77;;;9.45;;
73940;SDS011;62294;48.554;10.202;2023-05-15T05:32:35;20.10;;;9.88;;
73940;SDS011;62294;48.554;10.202;2023-05-15T05:35:01;19.50;;;10.27;;
73940;SDS011;62294;48.554;10.202;2023-05-15T05:37:29;16.98;;;9.30;;
73940;SDS011;62294;48.554;10.202;2023-05-15T05:39:55;16.45;;;8.77;;
73940;SDS011;62294;48.554;10.202;2023-05-15T05:42:22;14.82;;;8.48;;
73940;SDS011;62294;48.554;10.202;2023-05-15T05:44:48;11.77;;;7.05;;
73940;SDS011;62294;48.554;10.202;2023-05-15T05:47:15;11.50;;;6.63;;
73940;SDS011;62294;48.554;10.202;2023-05-15T05:49:42;10.68;;;5.95;;
73940;SDS011;62294;48.554;10.202;2023-05-15T05:52:12;10.23;;;6.00;;
73940;SDS011;62294;48.554;10.202;2023-05-15T05:54:39;9.60;;;5.80;;
73940;SDS011;62294;48.554;10.202;2023-05-15T05:57:05;8.95;;;5.78;;
73940;SDS011;62294;48.554;10.202;2023-05-15T05:59:34;8.75;;;5.68;;
73940;SDS011;62294;48.554;10.202;2023-05-15T06:02:00;9.07;;;5.57;;
73940;SDS011;62294;48.554;10.202;2023-05-15T06:04:27;9.02;;;5.63;;
73940;SDS011;62294;48.554;10.202;2023-05-15T06:06:54;10.98;;;6.30;;
73940;SDS011;62294;48.554;10.202;2023-05-15T06:09:20;9.18;;;6.20;;
73940;SDS011;62294;48.554;10.202;2023-05-15T06:11:47;8.93;;;5.68;;
73940;SDS011;62294;48.554;10.202;2023-05-15T06:14:13;9.50;;;5.72;;
73940;SDS011;62294;48.554;10.202;2023-05-15T06:16:40;8.88;;;5.70;;
73940;SDS011;62294;48.554;10.202;2023-05-15T06:19:07;9.32;;;5.75;;
73940;SDS011;62294;48.554;10.202;2023-05-15T06:21:34;9.60;;;5.65;;
73940;SDS011;62294;48.554;10.202;2023-05-15T06:24:00;8.90;;;5.60;;
73940;SDS011;62294;48.554;10.202;2023-05-15T06:26:27;9.07;;;5.22;;
73940;SDS011;62294;48.554;10.202;2023-05-15T06:28:54;9.85;;;5.50;;
73940;SDS011;62294;48.554;10.202;2023-05-15T06:31:20;12.98;;;5.93;;
73940;SDS011;62294;48.554;10.202;2023-05-15T06:33:47;9.45;;;5.50;;
73940;SDS011;62294;48.554;10.202;2023-05-15T06:36:13;8.00;;;5.20;;
73940;SDS011;62294;48.554;10.202;2023-05-15T06:38:41;7.10;;;4.97;;
73940;SDS011;62294;48.554;10.202;2023-05-15T06:41:08;9.15;;;4.65;;
73940;SDS011;62294;48.554;10.202;2023-05-15T06:43:34;10.65;;;5.70;;
73940;SDS011;62294;48.554;10.202;2023-05-15T06:46:01;8.55;;;5.43;;
73940;SDS011;62294;48.554;10.202;2023-05-15T06:48:28;6.85;;;4.70;;
73940;SDS011;62294;48.554;10.202;2023-05-15T06:50:54;7.07;;;4.43;;
73940;SDS011;62294;48.554;10.202;2023-05-15T06:53:21;6.40;;;4.47;;
73940;SDS011;62294;48.554;10.202;2023-05-15T06:55:49;7.05;;;4.25;;
73940;SDS011;62294;48.554;10.202;2023-05-15T06:58:15;7.85;;;4.40;;
73940;SDS011;62294;48.554;10.202;2023-05-15T07:00:43;6.05;;;3.97;;
73940;SDS011;62294;48.554;10.202;2023-05-15T07:03:09;5.35;;;3.92;;
73940;SDS011;62294;48.554;10.202;2023-05-15T07:05:36;5.25;;;3.75;;
73940;SDS011;62294;48.554;10.202;2023-05-15T07:08:02;5.25;;;3.70;;
73940;SDS011;62294;48.554;10.202;2023-05-15T07:10:29;5.65;;;4.13;;
73940;SDS011;62294;48.554;10.202;2023-05-15T07:12:55;6.20;;;4.28;;
73940;SDS011;62294;48.554;10.202;2023-05-15T07:15:22;8.23;;;3.80;;
73940;SDS011;62294;48.554;10.202;2023-05-15T07:17:49;4.97;;;3.70;;
73940;SDS011;62294;48.554;10.202;2023-05-15T07:20:15;5.82;;;3.92;;
73940;SDS011;62294;48.554;10.202;2023-05-15T07:22:42;5.60;;;4.00;;
73940;SDS011;62294;48.554;10.202;2023-05-15T07:25:21;5.38;;;3.33;;
73940;SDS011;62294;48.554;10.202;2023-05-15T07:27:48;5.55;;;3.67;;
73940;SDS011;62294;48.554;10.202;2023-05-15T07:30:15;7.03;;;4.18;;
73940;SDS011;62294;48.554;10.202;2023-05-15T07:32:41;8.85;;;3.83;;
73940;SDS011;62294;48.554;10.202;2023-05-15T07:35:08;5.13;;;3.40;;
73940;SDS011;62294;48.554;10.202;2023-05-15T07:37:37;5.30;;;3.72;;
73940;SDS011;62294;48.554;10.202;2023-05-15T07:40:04;4.70;;;3.42;;
73940;SDS011;62294;48.554;10.202;2023-05-15T07:42:31;5.85;;;3.90;;
73940;SDS011;62294;48.554;10.202;2023-05-15T07:44:58;6.00;;;4.00;;
73940;SDS011;62294;48.554;10.202;2023-05-15T07:47:24;4.60;;;3.60;;
73940;SDS011;62294;48.554;10.202;2023-05-15T07:49:50;5.75;;;3.70;;
73940;SDS011;62294;48.554;10.202;2023-05-15T07:52:18;7.93;;;3.83;;
73940;SDS011;62294;48.554;10.202;2023-05-15T07:54:44;5.72;;;3.90;;
73940;SDS011;62294;48.554;10.202;2023-05-15T07:57:10;4.82;;;3.70;;
73940;SDS011;62294;48.554;10.202;2023-05-15T07:59:38;4.88;;;3.80;;
73940;SDS011;62294;48.554;10.202;2023-05-15T08:02:05;5.07;;;3.45;;
73940;SDS011;62294;48.554;10.202;2023-05-15T08:04:32;5.00;;;3.42;;
73940;SDS011;62294;48.554;10.202;2023-05-15T08:06:59;5.20;;;3.55;;
73940;SDS011;62294;48.554;10.202;2023-05-15T08:09:25;6.05;;;3.72;;
73940;SDS011;62294;48.554;10.202;2023-05-15T08:11:54;5.55;;;3.33;;
73940;SDS011;62294;48.554;10.202;2023-05-15T08:14:21;5.85;;;3.40;;
73940;SDS011;62294;48.554;10.202;2023-05-15T08:16:49;4.60;;;3.50;;
73940;SDS011;62294;48.554;10.202;2023-05-15T08:19:16;4.88;;;3.50;;
73940;SDS011;62294;48.554;10.202;2023-05-15T08:21:42;5.07;;;3.70;;
73940;SDS011;62294;48.554;10.202;2023-05-15T08:24:09;7.00;;;4.40;;
73940;SDS011;62294;48.554;10.202;2023-05-15T08:26:35;5.45;;;3.75;;
73940;SDS011;62294;48.554;10.202;2023-05-15T08:29:01;5.30;;;3.72;;
73940;SDS011;62294;48.554;10.202;2023-05-15T08:31:28;4.05;;;3.10;;
73940;SDS011;62294;48.554;10.202;2023-05-15T08:33:55;4.82;;;3.13;;
73940;SDS011;62294;48.554;10.202;2023-05-15T08:36:21;4.45;;;3.05;;
73940;SDS011;62294;48.554;10.202;2023-05-15T08:38:48;5.45;;;3.22;;
73940;SDS011;62294;48.554;10.202;2023-05-15T08:41:18;4.40;;;3.05;;
73940;SDS011;62294;48.554;10.202;2023-05-15T08:44:05;5.70;;;4.32;;
73940;SDS011;62294;48.554;10.202;2023-05-15T08:46:34;4.43;;;3.60;;
73940;SDS011;62294;48.554;10.202;2023-05-15T08:49:02;6.88;;;3.67;;
73940;SDS011;62294;48.554;10.202;2023-05-15T08:51:36;6.07;;;3.53;;
73940;SDS011;62294;48.554;10.202;2023-05-15T08:54:04;5.60;;;3.97;;
73940;SDS011;62294;48.554;10.202;2023-05-15T08:56:31;4.70;;;3.85;;
73940;SDS011;62294;48.554;10.202;2023-05-15T08:58:58;5.00;;;3.70;;
73940;SDS011;62294;48.554;10.202;2023-05-15T09:01:24;5.38;;;4.10;;
73940;SDS011;62294;48.554;10.202;2023-05-15T09:03:52;5.07;;;3.83;;
73940;SDS011;62294;48.554;10.202;2023-05-15T09:06:19;4.85;;;3.80;;
73940;SDS011;62294;48.554;10.202;2023-05-15T09:08:46;5.82;;;4.22;;
73940;SDS011;62294;48.554;10.202;2023-05-15T09:11:14;6.47;;;4.53;;
73940;SDS011;62294;48.554;10.202;2023-05-15T09:13:41;4.78;;;4.10;;
73940;SDS011;62294;48.554;10.202;2023-05-15T09:16:08;4.78;;;3.63;;
73940;SDS011;62294;48.554;10.202;2023-05-15T09:18:34;5.90;;;3.83;;
73940;SDS011;62294;48.554;10.202;2023-05-15T09:21:23;4.65;;;3.65;;
73940;SDS011;62294;48.554;10.202;2023-05-15T09:24:39;5.90;;;3.88;;
73940;SDS011;62294;48.554;10.202;2023-05-15T09:26:42;4.30;;;3.28;;
73940;SDS011;62294;48.554;10.202;2023-05-15T09:29:16;6.13;;;3.80;;
73940;SDS011;62294;48.554;10.202;2023-05-15T09:31:46;4.43;;;3.60;;
73940;SDS011;62294;48.554;10.202;2023-05-15T09:34:13;4.18;;;3.50;;
73940;SDS011;62294;48.554;10.202;2023-05-15T09:36:43;6.18;;;3.70;;
73940;SDS011;62294;48.554;10.202;2023-05-15T09:39:12;5.20;;;3.67;;
73940;SDS011;62294;48.554;10.202;2023-05-15T09:41:40;5.50;;;3.78;;
73940;SDS011;62294;48.554;10.202;2023-05-15T09:44:16;5.40;;;3.72;;
73940;SDS011;62294;48.554;10.202;2023-05-15T09:46:50;6.20;;;3.50;;
73940;SDS011;62294;48.554;10.202;2023-05-15T09:49:20;5.53;;;4.15;;
73940;SDS011;62294;48.554;10.202;2023-05-15T09:51:47;5.47;;;3.33;;
73940;SDS011;62294;48.554;10.202;2023-05-15T09:54:16;8.18;;;4.30;;
73940;SDS011;62294;48.554;10.202;2023-05-15T09:56:44;5.68;;;4.07;;
73940;SDS011;62294;48.554;10.202;2023-05-15T09:59:17;5.40;;;3.55;;
73940;SDS011;62294;48.554;10.202;2023-05-15T10:01:49;4.20;;;3.28;;
73940;SDS011;62294;48.554;10.202;2023-05-15T10:04:17;4.68;;;3.28;;
73940;SDS011;62294;48.554;10.202;2023-05-15T10:06:47;4.43;;;3.10;;
73940;SDS011;62294;48.554;10.202;2023-05-15T10:09:13;4.45;;;2.95;;
73940;SDS011;62294;48.554;10.202;2023-05-15T10:11:41;7.03;;;3.72;;
73940;SDS011;62294;48.554;10.202;2023-05-15T10:14:09;4.45;;;3.75;;
73940;SDS011;62294;48.554;10.202;2023-05-15T10:16:38;3.85;;;3.45;;
73940;SDS011;62294;48.554;10.202;2023-05-15T10:19:07;4.78;;;3.40;;
73940;SDS011;62294;48.554;10.202;2023-05-15T10:21:35;4.07;;;3.00;;
73940;SDS011;62294;48.554;10.202;2023-05-15T10:24:03;4.10;;;3.05;;
73940;SDS011;62294;48.554;10.202;2023-05-15T10:29:10;4.95;;;3.00;;
73940;SDS011;62294;48.554;10.202;2023-05-15T10:31:39;4.72;;;3.33;;
73940;SDS011;62294;48.554;10.202;2023-05-15T10:34:07;5.55;;;3.10;;
73940;SDS011;62294;48.554;10.202;2023-05-15T10:36:35;4.35;;;3.38;;
73940;SDS011;62294;48.554;10.202;2023-05-15T10:39:03;3.85;;;3.30;;
73940;SDS011;62294;48.554;10.202;2023-05-15T10:41:32;5.00;;;3.10;;
73940;SDS011;62294;48.554;10.202;2023-05-15T10:44:01;4.28;;;3.58;;
73940;SDS011;62294;48.554;10.202;2023-05-15T10:46:28;6.07;;;3.47;;
73940;SDS011;62294;48.554;10.202;2023-05-15T10:48:56;4.70;;;3.10;;
73940;SDS011;62294;48.554;10.202;2023-05-15T10:51:24;4.93;;;3.38;;
73940;SDS011;62294;48.554;10.202;2023-05-15T10:53:53;5.10;;;3.42;;
73940;SDS011;62294;48.554;10.202;2023-05-15T10:56:25;6.25;;;3.50;;
73940;SDS011;62294;48.554;10.202;2023-05-15T10:58:54;4.47;;;3.58;;
73940;SDS011;62294;48.554;10.202;2023-05-15T11:01:25;6.10;;;3.15;;
73940;SDS011;62294;48.554;10.202;2023-05-15T11:04:12;3.08;;;2.65;;
73940;SDS011;62294;48.554;10.202;2023-05-15T11:06:44;2.95;;;2.22;;
73940;SDS011;62294;48.554;10.202;2023-05-15T11:14:18;2.80;;;1.92;;
73940;SDS011;62294;48.554;10.202;2023-05-15T11:24:48;3.95;;;2.78;;
73940;SDS011;62294;48.554;10.202;2023-05-15T11:27:25;5.33;;;3.17;;
73940;SDS011;62294;48.554;10.202;2023-05-15T11:32:40;6.10;;;3.80;;
73940;SDS011;62294;48.554;10.202;2023-05-15T11:35:28;5.82;;;3.20;;
73940;SDS011;62294;48.554;10.202;2023-05-15T11:38:04;5.30;;;3.70;;
73940;SDS011;62294;48.554;10.202;2023-05-15T11:45:51;6.07;;;3.90;;
73940;SDS011;62294;48.554;10.202;2023-05-15T11:48:23;4.95;;;3.60;;
73940;SDS011;62294;48.554;10.202;2023-05-15T11:50:52;3.95;;;3.15;;
73940;SDS011;62294;48.554;10.202;2023-05-15T11:53:19;5.68;;;3.15;;
73940;SDS011;62294;48.554;10.202;2023-05-15T11:55:46;3.20;;;2.78;;
73940;SDS011;62294;48.554;10.202;2023-05-15T11:58:13;3.33;;;2.00;;
73940;SDS011;62294;48.554;10.202;2023-05-15T12:00:44;2.83;;;2.00;;
73940;SDS011;62294;48.554;10.202;2023-05-15T12:03:16;2.28;;;1.83;;
73940;SDS011;62294;48.554;10.202;2023-05-15T12:05:43;2.58;;;1.50;;
73940;SDS011;62294;48.554;10.202;2023-05-15T12:08:24;3.03;;;1.85;;
73940;SDS011;62294;48.554;10.202;2023-05-15T12:10:52;1.40;;;1.30;;
73940;SDS011;62294;48.554;10.202;2023-05-15T12:13:18;2.78;;;1.95;;
73940;SDS011;62294;48.554;10.202;2023-05-15T12:15:46;2.00;;;1.20;;
73940;SDS011;62294;48.554;10.202;2023-05-15T12:18:13;1.45;;;1.30;;
73940;SDS011;62294;48.554;10.202;2023-05-15T12:20:40;3.08;;;1.15;;
73940;SDS011;62294;48.554;10.202;2023-05-15T12:23:15;1.63;;;1.33;;
73940;SDS011;62294;48.554;10.202;2023-05-15T12:25:43;2.85;;;1.70;;
73940;SDS011;62294;48.554;10.202;2023-05-15T12:28:12;2.97;;;1.58;;
73940;SDS011;62294;48.554;10.202;2023-05-15T12:30:39;3.00;;;1.95;;
73940;SDS011;62294;48.554;10.202;2023-05-15T12:33:08;3.75;;;2.20;;
73940;SDS011;62294;48.554;10.202;2023-05-15T12:35:36;4.53;;;2.13;;
73940;SDS011;62294;48.554;10.202;2023-05-15T12:38:07;3.00;;;2.10;;
73940;SDS011;62294;48.554;10.202;2023-05-15T12:40:35;2.33;;;2.10;;
73940;SDS011;62294;48.554;10.202;2023-05-15T12:43:05;2.38;;;2.17;;
73940;SDS011;62294;48.554;10.202;2023-05-15T12:45:33;2.10;;;1.80;;
73940;SDS011;62294;48.554;10.202;2023-05-15T12:48:03;4.20;;;3.25;;
73940;SDS011;62294;48.554;10.202;2023-05-15T12:50:33;3.45;;;2.20;;
73940;SDS011;62294;48.554;10.202;2023-05-15T12:53:02;5.47;;;2.30;;
73940;SDS011;62294;48.554;10.202;2023-05-15T12:55:30;4.35;;;2.47;;
73940;SDS011;62294;48.554;10.202;2023-05-15T12:58:00;4.05;;;2.40;;
73940;SDS011;62294;48.554;10.202;2023-05-15T13:00:35;4.97;;;3.20;;
73940;SDS011;62294;48.554;10.202;2023-05-15T13:03:03;4.57;;;3.40;;
73940;SDS011;62294;48.554;10.202;2023-05-15T13:05:31;4.28;;;3.53;;
73940;SDS011;62294;48.554;10.202;2023-05-15T13:07:58;10.18;;;4.35;;
73940;SDS011;62294;48.554;10.202;2023-05-15T13:10:30;7.57;;;3.85;;
73940;SDS011;62294;48.554;10.202;2023-05-15T13:12:57;5.75;;;3.83;;
73940;SDS011;62294;48.554;10.202;2023-05-15T13:18:01;4.82;;;3.45;;
73940;SDS011;62294;48.554;10.202;2023-05-15T13:20:32;4.20;;;3.47;;
73940;SDS011;62294;48.554;10.202;2023-05-15T13:23:00;38.28;;;6.85;;
73940;SDS011;62294;48.554;10.202;2023-05-15T13:25:27;4.20;;;3.40;;
73940;SDS011;62294;48.554;10.202;2023-05-15T13:27:57;5.35;;;3.60;;
73940;SDS011;62294;48.554;10.202;2023-05-15T13:30:26;4.70;;;3.60;;
73940;SDS011;62294;48.554;10.202;2023-05-15T13:32:53;4.30;;;3.38;;
73940;SDS011;62294;48.554;10.202;2023-05-15T13:35:21;6.10;;;3.60;;
73940;SDS011;62294;48.554;10.202;2023-05-15T13:37:48;5.97;;;3.42;;
73940;SDS011;62294;48.554;10.202;2023-05-15T13:40:15;4.85;;;3.60;;
73940;SDS011;62294;48.554;10.202;2023-05-15T13:42:42;4.05;;;3.55;;
73940;SDS011;62294;48.554;10.202;2023-05-15T13:45:10;5.28;;;3.28;;
73940;SDS011;62294;48.554;10.202;2023-05-15T13:47:37;5.57;;;3.65;;
73940;SDS011;62294;48.554;10.202;2023-05-15T13:50:05;4.70;;;3.30;;
73940;SDS011;62294;48.554;10.202;2023-05-15T13:52:32;4.68;;;3.25;;
73940;SDS011;62294;48.554;10.202;2023-05-15T13:54:59;5.53;;;3.50;;
73940;SDS011;62294;48.554;10.202;2023-05-15T13:57:25;4.20;;;3.20;;
73940;SDS011;62294;48.554;10.202;2023-05-15T13:59:52;4.40;;;3.60;;
73940;SDS011;62294;48.554;10.202;2023-05-15T14:02:18;5.75;;;3.60;;
73940;SDS011;62294;48.554;10.202;2023-05-15T14:04:46;7.13;;;3.63;;
73940;SDS011;62294;48.554;10.202;2023-05-15T14:07:13;6.43;;;3.60;;
73940;SDS011;62294;48.554;10.202;2023-05-15T14:09:39;4.82;;;3.40;;
73940;SDS011;62294;48.554;10.202;2023-05-15T14:12:06;4.00;;;2.97;;
73940;SDS011;62294;48.554;10.202;2023-05-15T14:14:34;3.53;;;2.80;;
73940;SDS011;62294;48.554;10.202;2023-05-15T14:17:01;3.58;;;2.75;;
73940;SDS011;62294;48.554;10.202;2023-05-15T14:19:28;7.25;;;3.60;;
73940;SDS011;62294;48.554;10.202;2023-05-15T14:21:54;3.28;;;2.50;;
73940;SDS011;62294;48.554;10.202;2023-05-15T14:24:21;3.70;;;2.80;;
73940;SDS011;62294;48.554;10.202;2023-05-15T14:26:47;5.53;;;2.78;;
73940;SDS011;62294;48.554;10.202;2023-05-15T14:29:14;5.72;;;2.90;;
73940;SDS011;62294;48.554;10.202;2023-05-15T14:31:40;3.40;;;2.70;;
73940;SDS011;62294;48.554;10.202;2023-05-15T14:34:10;3.40;;;2.63;;
73940;SDS011;62294;48.554;10.202;2023-05-15T14:36:36;3.50;;;2.50;;
73940;SDS011;62294;48.554;10.202;2023-05-15T14:39:03;4.40;;;2.85;;
73940;SDS011;62294;48.554;10.202;2023-05-15T14:41:29;2.17;;;1.90;;
73940;SDS011;62294;48.554;10.202;2023-05-15T14:43:56;4.28;;;2.00;;
73940;SDS011;62294;48.554;10.202;2023-05-15T14:46:23;7.07;;;2.30;;
73940;SDS011;62294;48.554;10.202;2023-05-15T14:48:49;2.28;;;1.80;;
73940;SDS011;62294;48.554;10.202;2023-05-15T14:51:16;3.03;;;1.90;;
73940;SDS011;62294;48.554;10.202;2023-05-15T14:53:45;3.60;;;1.85;;
73940;SDS011;62294;48.554;10.202;2023-05-15T14:56:11;2.10;;;1.85;;
73940;SDS011;62294;48.554;10.202;2023-05-15T14:58:39;2.13;;;1.92;;
73940;SDS011;62294;48.554;10.202;2023-05-15T15:01:06;2.00;;;1.80;;
73940;SDS011;62294;48.554;10.202;2023-05-15T15:03:32;4.35;;;1.90;;
73940;SDS011;62294;48.554;10.202;2023-05-15T15:05:59;4.20;;;2.10;;
73940;SDS011;62294;48.554;10.202;2023-05-15T15:08:26;2.13;;;1.90;;
73940;SDS011;62294;48.554;10.202;2023-05-15T15:10:53;2.55;;;2.13;;
73940;SDS011;62294;48.554;10.202;2023-05-15T15:13:19;3.60;;;2.28;;
73940;SDS011;62294;48.554;10.202;2023-05-15T15:15:46;2.53;;;2.00;;
73940;SDS011;62294;48.554;10.202;2023-05-15T15:18:13;4.00;;;2.63;;